createdAt,value
2023-02-06T00:00:53.251Z,-5.40
2023-02-06T00:03:20.521Z,-5.40
2023-02-06T00:05:58.347Z,-5.30
2023-02-06T00:08:26.161Z,-5.30
2023-02-06T00:10:53.616Z,-5.30
2023-02-06T00:13:21.011Z,-5.30
2023-02-06T00:15:48.234Z,-5.30
2023-02-06T00:18:15.201Z,-5.30
2023-02-06T00:20:42.135Z,-5.40
2023-02-06T00:23:09.119Z,-5.40
2023-02-06T00:25:36.189Z,-5.30
2023-02-06T00:28:03.397Z,-5.30
2023-02-06T00:30:30.387Z,-5.30
2023-02-06T00:32:57.237Z,-5.30
2023-02-06T00:35:24.105Z,-5.30
2023-02-06T00:37:51.365Z,-5.30
2023-02-06T00:40:18.914Z,-5.30
2023-02-06T00:42:45.859Z,-5.30
2023-02-06T00:45:12.743Z,-5.30
2023-02-06T00:47:39.727Z,-5.40
2023-02-06T00:50:06.819Z,-5.40
2023-02-06T00:52:33.770Z,-5.40
2023-02-06T00:55:00.741Z,-5.40
2023-02-06T00:57:27.669Z,-5.40
2023-02-06T00:59:54.566Z,-5.50
2023-02-06T01:02:21.516Z,-5.60
2023-02-06T01:04:48.522Z,-5.60
2023-02-06T01:07:15.503Z,-5.60
2023-02-06T01:09:42.382Z,-5.70
2023-02-06T01:12:09.345Z,-5.70
2023-02-06T01:14:36.387Z,-5.70
2023-02-06T01:17:03.574Z,-5.70
2023-02-06T01:19:30.505Z,-5.70
2023-02-06T01:21:57.495Z,-5.70
2023-02-06T01:24:24.419Z,-5.80
2023-02-06T01:26:51.358Z,-5.80
2023-02-06T01:29:18.254Z,-5.80
2023-02-06T01:31:45.218Z,-5.80
2023-02-06T01:34:12.581Z,-5.70
2023-02-06T01:36:39.696Z,-5.70
2023-02-06T01:39:07.632Z,-5.70
2023-02-06T01:41:34.772Z,-5.70
2023-02-06T01:44:22.613Z,-5.60
2023-02-06T01:46:55.915Z,-5.60
2023-02-06T01:49:34.412Z,-5.60
2023-02-06T01:52:08.314Z,-5.50
2023-02-06T01:54:35.770Z,-5.50
2023-02-06T01:57:06.245Z,-5.40
2023-02-06T01:59:34.117Z,-5.40
2023-02-06T02:02:01.247Z,-5.40
2023-02-06T02:04:31.310Z,-5.40
2023-02-06T02:07:22.792Z,-5.30
2023-02-06T02:09:49.804Z,-5.30
2023-02-06T02:12:17.124Z,-5.30
2023-02-06T02:14:45.892Z,-5.20
2023-02-06T02:17:23.170Z,-5.20
2023-02-06T02:20:19.489Z,-5.10
2023-02-06T02:23:01.833Z,-5.10
2023-02-06T02:25:35.302Z,-5.10
2023-02-06T02:28:24.007Z,-5.10
2023-02-06T02:31:34.474Z,-5.10
2023-02-06T02:35:00.243Z,-5.10
2023-02-06T02:37:33.190Z,-5.10
2023-02-06T02:40:04.940Z,-5.00
2023-02-06T02:42:49.001Z,-5.10
2023-02-06T02:45:23.707Z,-5.10
2023-02-06T02:48:08.475Z,-5.10
2023-02-06T02:50:36.609Z,-5.00
2023-02-06T02:53:05.319Z,-5.00
2023-02-06T02:55:32.316Z,-4.90
2023-02-06T02:58:09.208Z,-4.90
2023-02-06T03:00:43.441Z,-4.80
2023-02-06T03:03:13.178Z,-4.60
2023-02-06T03:06:01.810Z,-4.50
2023-02-06T03:08:59.684Z,-4.40
2023-02-06T03:11:27.719Z,-4.20
2023-02-06T03:14:00.477Z,-4.10
2023-02-06T03:16:38.176Z,-4.00
2023-02-06T03:19:13.767Z,-4.00
2023-02-06T03:21:41.973Z,-3.90
2023-02-06T03:24:14.067Z,-4.00
2023-02-06T03:26:42.357Z,-3.90
2023-02-06T03:29:12.979Z,-3.90
2023-02-06T03:31:46.661Z,-3.80
2023-02-06T03:34:50.796Z,-3.80
2023-02-06T03:37:17.883Z,-3.70
2023-02-06T03:39:44.887Z,-3.60
2023-02-06T03:42:13.576Z,-3.60
2023-02-06T03:44:45.050Z,-3.60
2023-02-06T03:47:13.763Z,-3.60
2023-02-06T03:49:42.914Z,-3.60
2023-02-06T03:52:17.059Z,-3.50
2023-02-06T03:54:51.374Z,-3.50
2023-02-06T03:57:21.368Z,-3.40
2023-02-06T03:59:48.614Z,-3.40
2023-02-06T04:02:17.009Z,-3.30
2023-02-06T04:04:45.555Z,-3.30
2023-02-06T04:07:30.701Z,-3.20
2023-02-06T04:09:57.636Z,-3.20
2023-02-06T04:12:25.399Z,-3.00
2023-02-06T04:14:52.822Z,-3.00
2023-02-06T04:17:38.481Z,-2.90
2023-02-06T04:20:07.319Z,-2.80
2023-02-06T04:22:34.236Z,-2.70
2023-02-06T04:25:01.144Z,-2.70
2023-02-06T04:27:28.103Z,-2.60
2023-02-06T04:29:55.028Z,-2.60
2023-02-06T04:32:22.017Z,-2.60
2023-02-06T04:34:48.972Z,-2.50
2023-02-06T04:37:15.937Z,-2.50
2023-02-06T04:39:42.831Z,-2.50
2023-02-06T04:42:09.904Z,-2.40
2023-02-06T04:44:39.614Z,-2.40
2023-02-06T04:47:07.591Z,-2.40
2023-02-06T04:49:35.497Z,-2.40
2023-02-06T04:52:02.474Z,-2.40
2023-02-06T04:54:32.388Z,-2.40
2023-02-06T04:56:59.638Z,-2.40
2023-02-06T04:59:26.835Z,-2.40
2023-02-06T05:01:53.974Z,-2.30
2023-02-06T05:04:20.915Z,-2.30
2023-02-06T05:06:47.815Z,-2.30
2023-02-06T05:09:14.710Z,-2.20
2023-02-06T05:11:41.681Z,-2.30
2023-02-06T05:14:08.613Z,-2.20
2023-02-06T05:16:35.564Z,-2.30
2023-02-06T05:19:02.465Z,-2.20
2023-02-06T05:21:29.403Z,-2.10
2023-02-06T05:23:56.343Z,-2.20
2023-02-06T05:26:23.254Z,-2.20
2023-02-06T05:28:50.207Z,-2.10
2023-02-06T05:31:20.081Z,-2.10
2023-02-06T05:33:51.137Z,-2.10
2023-02-06T05:36:20.092Z,-2.10
2023-02-06T05:38:47.768Z,-2.10
2023-02-06T05:41:15.630Z,-2.10
2023-02-06T05:43:42.692Z,-2.10
2023-02-06T05:46:09.709Z,-2.00
2023-02-06T05:48:36.782Z,-2.00
2023-02-06T05:51:03.944Z,-2.10
2023-02-06T05:53:31.036Z,-2.00
2023-02-06T05:55:58.236Z,-1.90
2023-02-06T05:58:25.210Z,-1.90
2023-02-06T06:00:52.135Z,-1.90
2023-02-06T06:03:19.348Z,-1.90
2023-02-06T06:05:46.675Z,-1.80
2023-02-06T06:08:13.579Z,-1.80
2023-02-06T06:10:40.436Z,-1.70
2023-02-06T06:13:08.426Z,-1.70
2023-02-06T06:15:35.788Z,-1.70
2023-02-06T06:18:03.260Z,-1.60
2023-02-06T06:20:30.226Z,-1.60
2023-02-06T06:22:57.126Z,-1.60
2023-02-06T06:25:24.193Z,-1.50
2023-02-06T06:27:51.104Z,-1.60
2023-02-06T06:30:18.210Z,-1.50
2023-02-06T06:32:47.022Z,-1.50
2023-02-06T06:35:15.479Z,-1.50
2023-02-06T06:37:42.429Z,-1.50
2023-02-06T06:40:10.023Z,-1.60
2023-02-06T06:42:36.999Z,-1.50
2023-02-06T06:45:04.890Z,-1.40
2023-02-06T06:47:31.763Z,-1.40
2023-02-06T06:49:58.693Z,-1.40
2023-02-06T06:52:25.893Z,-1.40
2023-02-06T06:54:53.806Z,-1.40
2023-02-06T06:57:22.182Z,-1.30
2023-02-06T06:59:49.533Z,-1.30
2023-02-06T07:02:16.879Z,-1.30
2023-02-06T07:04:43.912Z,-1.20
2023-02-06T07:07:10.803Z,-1.20
2023-02-06T07:09:37.804Z,-1.10
2023-02-06T07:12:05.077Z,-1.10
2023-02-06T07:14:32.155Z,-1.10
2023-02-06T07:17:01.777Z,-1.10
2023-02-06T07:19:28.731Z,-1.10
2023-02-06T07:21:55.689Z,-1.10
2023-02-06T07:24:22.726Z,-1.00
2023-02-06T07:26:49.633Z,-1.00
2023-02-06T07:29:16.569Z,-1.00
2023-02-06T07:31:43.523Z,-1.00
2023-02-06T07:34:10.693Z,-1.00
2023-02-06T07:36:39.328Z,-1.00
2023-02-06T07:39:06.425Z,-0.90
2023-02-06T07:41:34.720Z,-0.80
2023-02-06T07:44:01.626Z,-0.80
2023-02-06T07:46:28.788Z,-0.80
2023-02-06T07:48:55.690Z,-0.80
2023-02-06T07:51:23.093Z,-0.80
2023-02-06T07:53:51.807Z,-0.70
2023-02-06T07:56:23.451Z,-0.60
2023-02-06T07:58:53.769Z,-0.50
2023-02-06T08:01:22.829Z,-0.40
2023-02-06T08:03:52.501Z,-0.40
2023-02-06T08:06:23.226Z,-0.40
2023-02-06T08:08:51.797Z,-0.30
2023-02-06T08:11:20.732Z,-0.40
2023-02-06T08:13:48.690Z,-0.20
2023-02-06T08:16:19.754Z,-0.20
2023-02-06T08:18:47.312Z,-0.20
2023-02-06T08:21:17.435Z,-0.10
2023-02-06T08:23:46.082Z,0.00
2023-02-06T08:26:18.331Z,0.00
2023-02-06T08:28:49.045Z,0.00
2023-02-06T08:31:20.127Z,0.00
2023-02-06T08:33:47.258Z,0.00
2023-02-06T08:36:15.043Z,0.10
2023-02-06T08:38:42.034Z,0.20
2023-02-06T08:41:22.227Z,0.20
2023-02-06T08:43:50.218Z,0.30
2023-02-06T08:46:18.974Z,0.50
2023-02-06T08:48:46.305Z,0.60
2023-02-06T08:51:16.552Z,0.70
2023-02-06T08:53:44.676Z,0.80
2023-02-06T08:56:14.135Z,0.90
2023-02-06T08:58:41.266Z,0.90
2023-02-06T09:01:10.271Z,0.90
2023-02-06T09:03:37.315Z,1.00
2023-02-06T09:06:09.789Z,1.00
2023-02-06T09:08:37.314Z,1.00
2023-02-06T09:11:12.593Z,1.10
2023-02-06T09:13:39.834Z,1.20
2023-02-06T09:16:07.526Z,1.00
2023-02-06T09:18:34.950Z,0.80
2023-02-06T09:21:11.537Z,0.80
2023-02-06T09:23:43.937Z,0.70
2023-02-06T09:26:13.725Z,0.80
2023-02-06T09:28:40.703Z,0.70
2023-02-06T09:31:08.703Z,0.80
2023-02-06T09:33:38.546Z,0.80
2023-02-06T09:36:07.510Z,0.90
2023-02-06T09:38:35.564Z,0.90
2023-02-06T09:41:05.974Z,1.00
2023-02-06T09:43:34.588Z,1.10
2023-02-06T09:46:04.716Z,1.10
2023-02-06T09:48:35.245Z,1.10
2023-02-06T09:51:17.386Z,1.20
2023-02-06T09:54:19.205Z,1.10
2023-02-06T09:57:04.657Z,1.20
2023-02-06T09:59:41.671Z,1.20
2023-02-06T10:02:51.339Z,1.30
2023-02-06T10:05:50.668Z,1.30
2023-02-06T10:08:34.538Z,1.20
2023-02-06T10:11:07.846Z,1.20
2023-02-06T10:13:58.182Z,1.30
2023-02-06T10:16:39.656Z,1.30
2023-02-06T10:19:25.250Z,1.40
2023-02-06T10:22:00.615Z,1.40
2023-02-06T10:24:31.659Z,1.40
2023-02-06T10:27:06.212Z,1.50
